Time;durP1;ratioP1;P1;durP2;ratioP2;P2;SDS_P1;SDS_P2;PMS_P1;PMS_P2;Temp;Humidity;BMP_temperature;BMP_pressure;BME280_temperature;BME280_humidity;BME280_pressure;Samples;Min_cycle;Max_cycle;Signal;HPM_P1;HPM_P2
2023/07/10 00:00:23;;;;;;;8.37;2.33;;;;;;;23.12;59.90;99254.22;6246903;23;20551;-86
2023/07/10 00:02:49;;;;;;;8.33;2.20;;;;;;;23.07;59.65;99252.03;6246735;23;20195;-86
2023/07/10 00:05:18;;;;;;;5.27;2.20;;;;;;;23.07;59.90;99253.84;6246837;23;20153;-85
2023/07/10 00:07:44;;;;;;;4.07;2.20;;;;;;;23.04;60.51;99256.81;6246730;23;20149;-86
2023/07/10 00:10:12;;;;;;;3.10;1.70;;;;;;;23.05;60.04;99251.34;6219910;23;20199;-85
2023/07/10 00:12:39;;;;;;;5.23;2.57;;;;;;;23.09;59.81;99246.50;6246300;23;20203;-86
2023/07/10 00:15:13;;;;;;;3.53;2.03;;;;;;;23.12;60.12;99252.38;6246476;23;20531;-85
2023/07/10 00:17:39;;;;;;;4.33;2.20;;;;;;;23.09;59.90;99250.03;6246908;23;20143;-85
2023/07/10 00:20:17;;;;;;;4.37;2.40;;;;;;;23.06;60.30;99242.31;5091421;27;20670;-85
2023/07/10 00:22:43;;;;;;;10.10;2.67;;;;;;;23.02;60.06;99243.63;5091472;28;20172;-85
2023/07/10 00:25:09;;;;;;;3.47;1.70;;;;;;;22.95;59.91;99237.25;5089791;28;20683;-85
2023/07/10 00:27:35;;;;;;;5.17;2.53;;;;;;;22.92;60.53;99242.88;5090776;28;20626;-85
2023/07/10 00:30:02;;;;;;;12.70;2.50;;;;;;;22.95;60.35;99244.41;5090585;28;20187;-85
2023/07/10 00:32:28;;;;;;;3.13;1.87;;;;;;;22.97;60.19;99242.41;5089688;28;20180;-85
2023/07/10 00:34:55;;;;;;;4.57;2.23;;;;;;;22.93;60.47;99246.41;5090466;28;20679;-85
2023/07/10 00:37:21;;;;;;;4.30;2.07;;;;;;;22.94;60.51;99245.41;5090568;28;20223;-85
2023/07/10 00:39:46;;;;;;;12.73;2.03;;;;;;;22.93;60.80;99252.56;5090437;28;20204;-85
2023/07/10 00:42:17;;;;;;;4.53;2.17;;;;;;;22.92;60.35;99250.06;5090282;28;20181;-85
2023/07/10 00:44:57;;;;;;;8.10;2.40;;;;;;;22.89;60.44;99253.91;5089514;28;20667;-85
2023/07/10 00:47:39;;;;;;;5.10;2.30;;;;;;;22.81;61.28;99245.81;5089457;28;20165;-85
2023/07/10 00:50:11;;;;;;;4.27;2.13;;;;;;;22.80;60.96;99246.78;5090782;28;20181;-85
2023/07/10 00:52:42;;;;;;;5.50;1.90;;;;;;;22.78;61.92;99245.25;5089272;28;20180;-85
2023/07/10 00:55:28;;;;;;;3.03;1.70;;;;;;;22.80;61.45;99244.13;5090224;28;20157;-85
2023/07/10 00:58:20;;;;;;;6.03;2.03;;;;;;;22.78;61.17;99246.13;5090150;28;20253;-85
2023/07/10 01:01:13;;;;;;;4.37;1.87;;;;;;;22.78;61.51;99247.94;5090460;28;20165;-84
2023/07/10 01:03:40;;;;;;;4.20;1.57;;;;;;;22.67;62.25;99241.00;5090412;28;20243;-85
2023/07/10 01:06:23;;;;;;;4.97;1.83;;;;;;;22.53;61.18;99239.72;5090331;28;20165;-85
2023/07/10 01:08:54;;;;;;;5.13;2.10;;;;;;;22.11;60.27;99251.97;5088777;28;20181;-84
2023/07/10 01:11:20;;;;;;;3.77;1.87;;;;;;;21.97;60.62;99249.81;5088944;28;20168;-84
2023/07/10 01:13:50;;;;;;;4.73;2.00;;;;;;;22.03;60.31;99252.72;5090290;28;20196;-84
2023/07/10 01:16:18;;;;;;;6.63;1.57;;;;;;;22.22;59.71;99246.38;5089605;28;20249;-85
2023/07/10 01:18:43;;;;;;;4.27;1.80;;;;;;;22.32;59.04;99247.19;5088581;28;20231;-85
2023/07/10 01:21:33;;;;;;;4.40;1.97;;;;;;;22.30;59.12;99243.81;5088745;28;20180;-85
2023/07/10 01:24:04;;;;;;;3.90;2.10;;;;;;;22.46;58.51;99243.97;5088351;28;20267;-84
2023/07/10 01:26:31;;;;;;;4.57;1.93;;;;;;;22.63;57.98;99239.66;5089890;28;20169;-85
2023/07/10 01:28:58;;;;;;;6.43;1.50;;;;;;;22.73;57.51;99242.22;5089575;28;20172;-85
2023/07/10 01:31:27;;;;;;;5.37;2.10;;;;;;;22.73;57.17;99244.91;5077273;28;20177;-85
2023/07/10 01:34:00;;;;;;;4.73;2.30;;;;;;;22.85;56.81;99238.31;5076011;28;20205;-85
2023/07/10 01:36:29;;;;;;;3.43;1.73;;;;;;;22.86;56.56;99242.66;5076142;28;20169;-85
2023/07/10 01:39:00;;;;;;;3.60;1.77;;;;;;;22.93;56.68;99241.06;5075930;28;20235;-85
2023/07/10 01:41:38;;;;;;;4.60;1.87;;;;;;;23.00;56.72;99245.63;5076175;28;20233;-85
2023/07/10 01:44:24;;;;;;;5.00;1.83;;;;;;;22.94;56.41;99246.25;5074912;28;20179;-85
2023/07/10 01:46:51;;;;;;;3.57;1.93;;;;;;;22.93;56.98;99241.06;5075840;28;20168;-85
2023/07/10 01:49:25;;;;;;;4.93;1.90;;;;;;;22.96;56.45;99235.38;5074683;28;20181;-85
2023/07/10 01:51:53;;;;;;;4.10;1.50;;;;;;;22.95;56.22;99231.03;5074714;28;20173;-85
2023/07/10 01:54:20;;;;;;;4.47;1.60;;;;;;;22.97;56.00;99242.41;5075874;28;20173;-85
2023/07/10 01:56:47;;;;;;;6.17;2.13;;;;;;;23.02;55.95;99245.47;5075638;28;20319;-85
2023/07/10 01:59:13;;;;;;;3.20;1.80;;;;;;;23.15;55.78;99236.03;5075494;28;20189;-85
2023/07/10 02:01:40;;;;;;;3.40;1.90;;;;;;;23.27;56.83;99238.44;5074208;28;20185;-85
2023/07/10 02:04:06;;;;;;;2.43;1.40;;;;;;;23.35;56.01;99231.28;5075482;28;20196;-85
2023/07/10 02:06:34;;;;;;;4.10;1.60;;;;;;;23.24;56.02;99239.59;5075406;28;20594;-84
2023/07/10 02:09:00;;;;;;;5.37;1.83;;;;;;;23.08;55.67;99239.50;5075527;28;20184;-85
2023/07/10 02:11:26;;;;;;;3.47;1.80;;;;;;;23.14;55.82;99237.00;5074331;28;20180;-85
2023/07/10 02:13:53;;;;;;;2.73;1.67;;;;;;;23.28;56.20;99235.59;5074290;28;20181;-85
2023/07/10 02:16:20;;;;;;;8.07;2.10;;;;;;;23.36;57.04;99243.66;5075665;28;20192;-85
2023/07/10 02:18:45;;;;;;;6.30;1.83;;;;;;;23.37;56.73;99236.53;5075115;28;20580;-85
2023/07/10 02:21:12;;;;;;;3.57;1.87;;;;;;;23.29;56.72;99231.94;5074162;28;20626;-85
2023/07/10 02:23:38;;;;;;;4.40;1.90;;;;;;;23.30;56.79;99238.94;5074110;28;20626;-85
2023/07/10 02:26:05;;;;;;;4.20;2.13;;;;;;;23.31;57.07;99234.44;5074952;28;20631;-85
2023/07/10 02:28:31;;;;;;;5.97;2.07;;;;;;;23.27;57.49;99239.25;5074863;28;20260;-85
2023/07/10 02:30:57;;;;;;;5.27;2.60;;;;;;;23.16;57.69;99247.56;5074903;28;20256;-85
2023/07/10 02:33:23;;;;;;;4.07;1.60;;;;;;;22.98;57.93;99249.47;5074893;28;20223;-85
2023/07/10 02:35:49;;;;;;;5.93;1.97;;;;;;;22.89;57.72;99250.38;5074997;28;20618;-85
2023/07/10 02:38:15;;;;;;;3.83;1.87;;;;;;;22.86;58.10;99250.69;5074661;28;20602;-85
2023/07/10 02:40:43;;;;;;;3.33;1.93;;;;;;;22.87;58.63;99247.03;5074702;28;20185;-85
2023/07/10 02:43:10;;;;;;;3.20;1.90;;;;;;;22.80;58.95;99252.13;5073679;28;20614;-85
2023/07/10 02:45:37;;;;;;;4.13;2.23;;;;;;;22.80;59.12;99262.00;5073650;28;20684;-84
2023/07/10 02:48:02;;;;;;;3.80;2.17;;;;;;;22.73;59.35;99259.09;5074366;28;20177;-85
2023/07/10 02:50:28;;;;;;;3.50;1.87;;;;;;;22.69;59.41;99262.25;5073478;28;20326;-85
2023/07/10 02:52:54;;;;;;;5.27;1.40;;;;;;;22.69;59.49;99260.41;5074474;28;20219;-85
2023/07/10 02:55:19;;;;;;;4.37;1.63;;;;;;;22.74;59.30;99267.97;5073339;28;20250;-85
2023/07/10 02:57:44;;;;;;;4.10;2.13;;;;;;;22.67;59.83;99267.72;5074369;28;20187;-85
2023/07/10 03:00:12;;;;;;;4.07;1.77;;;;;;;22.58;59.40;99271.31;5073298;28;20299;-85
2023/07/10 03:02:40;;;;;;;3.30;1.43;;;;;;;22.56;59.88;99271.44;5073304;28;20653;-85
2023/07/10 03:05:06;;;;;;;3.40;1.47;;;;;;;22.48;58.93;99265.19;5073244;28;20185;-85
2023/07/10 03:07:33;;;;;;;4.10;1.97;;;;;;;22.72;58.01;99264.63;5073962;28;20185;-85
2023/07/10 03:09:59;;;;;;;6.30;1.87;;;;;;;22.70;57.69;99267.44;5073976;28;20490;-85
2023/07/10 03:12:25;;;;;;;6.60;2.20;;;;;;;22.62;57.85;99259.31;5074099;28;20188;-85
2023/07/10 03:14:50;;;;;;;5.10;2.00;;;;;;;22.68;59.21;99258.72;5074042;28;20180;-85
2023/07/10 03:17:17;;;;;;;4.90;1.80;;;;;;;22.69;58.99;99259.56;5073865;28;20177;-85
2023/07/10 03:19:44;;;;;;;2.53;1.37;;;;;;;22.76;59.12;99260.63;5073652;28;20212;-85
2023/07/10 03:22:11;;;;;;;6.60;2.37;;;;;;;22.74;59.53;99265.28;5072986;28;20189;-84
2023/07/10 03:24:37;;;;;;;4.17;2.30;;;;;;;22.72;58.14;99265.44;5073839;28;20168;-85
2023/07/10 03:27:03;;;;;;;6.23;2.70;;;;;;;22.78;59.05;99267.50;5072885;28;20209;-84
2023/07/10 03:29:29;;;;;;;4.03;2.00;;;;;;;22.79;58.89;99271.00;5073786;28;20626;-84
2023/07/10 03:31:55;;;;;;;4.30;1.77;;;;;;;22.79;58.87;99265.66;5072676;28;20272;-85
2023/07/10 03:34:21;;;;;;;4.80;2.20;;;;;;;22.90;58.91;99270.78;5072720;28;20173;-84
2023/07/10 03:36:46;;;;;;;4.97;2.20;;;;;;;22.97;58.91;99277.16;5073671;28;20177;-85
2023/07/10 03:39:13;;;;;;;3.57;1.83;;;;;;;22.87;59.65;99273.75;5073814;28;20638;-85
2023/07/10 03:41:39;;;;;;;3.90;2.10;;;;;;;22.93;59.64;99278.50;5073465;28;20181;-85
2023/07/10 03:44:09;;;;;;;3.90;2.07;;;;;;;22.96;59.04;99276.31;5073369;28;20177;-85
2023/07/10 03:46:36;;;;;;;3.17;2.03;;;;;;;22.97;59.30;99280.69;5072560;28;20180;-85
2023/07/10 03:49:02;;;;;;;7.33;2.27;;;;;;;22.99;59.23;99277.84;5073783;28;20161;-84
2023/07/10 03:51:28;;;;;;;3.57;2.23;;;;;;;23.00;59.75;99279.53;5072758;28;20638;-85
2023/07/10 03:53:53;;;;;;;4.93;2.70;;;;;;;23.01;60.41;99282.03;5072261;28;20189;-85
2023/07/10 03:56:20;;;;;;;6.93;2.37;;;;;;;23.03;60.55;99287.25;5073429;28;20212;-85
2023/07/10 03:58:46;;;;;;;8.13;2.63;;;;;;;23.06;61.17;99295.78;5072263;28;20226;-85
2023/07/10 04:01:14;;;;;;;5.17;2.80;;;;;;;23.10;61.33;99285.63;5057949;28;20215;-84
2023/07/10 04:03:39;;;;;;;5.93;2.50;;;;;;;23.11;61.46;99290.81;5053552;28;20174;-84
2023/07/10 04:06:07;;;;;;;10.03;2.97;;;;;;;23.13;61.65;99296.00;5053287;28;20174;-85
2023/07/10 04:08:36;;;;;;;7.20;2.50;;;;;;;23.18;61.45;99301.72;5072355;28;20208;-85
2023/07/10 04:11:05;;;;;;;6.30;2.50;;;;;;;23.20;61.91;99303.25;5072189;28;20184;-85
2023/07/10 04:13:32;;;;;;;4.73;2.50;;;;;;;23.27;62.15;99314.16;5073517;28;20185;-85
2023/07/10 04:16:18;;;;;;;4.90;2.33;;;;;;;23.31;62.08;99312.84;5072212;28;20580;-84
2023/07/10 04:18:46;;;;;;;5.10;2.33;;;;;;;23.37;61.58;99314.94;5073236;28;20223;-85
2023/07/10 04:21:17;;;;;;;5.00;3.07;;;;;;;23.45;61.09;99316.84;5073153;28;20177;-84
2023/07/10 04:23:43;;;;;;;4.13;2.40;;;;;;;23.55;59.97;99323.75;5072897;28;20275;-84
2023/07/10 04:26:21;;;;;;;5.50;2.20;;;;;;;23.60;60.08;99318.78;5073109;28;20200;-84
2023/07/10 04:28:50;;;;;;;4.30;2.50;;;;;;;23.64;60.62;99322.78;5073550;28;20165;-84
2023/07/10 04:31:18;;;;;;;3.93;2.37;;;;;;;23.73;60.57;99321.84;5073085;28;20191;-84
2023/07/10 04:33:46;;;;;;;5.13;2.30;;;;;;;23.85;60.27;99320.56;5072045;28;20181;-85
2023/07/10 04:36:13;;;;;;;3.90;2.33;;;;;;;23.90;60.35;99321.94;5073108;28;20181;-85
2023/07/10 04:38:39;;;;;;;4.17;2.43;;;;;;;24.04;59.23;99334.69;5072866;28;20201;-85
2023/07/10 04:41:10;;;;;;;3.63;2.30;;;;;;;24.06;59.65;99321.97;5073222;28;20181;-85
2023/07/10 04:43:37;;;;;;;4.00;2.40;;;;;;;24.23;59.69;99321.09;5073568;28;20606;-86
2023/07/10 04:46:06;;;;;;;5.73;2.73;;;;;;;24.41;59.89;99321.81;5073161;28;20578;-86
2023/07/10 04:48:33;;;;;;;8.87;2.80;;;;;;;24.49;59.86;99324.50;5073006;28;20181;-86
2023/07/10 04:51:03;;;;;;;4.03;2.20;;;;;;;24.59;59.54;99321.66;5078067;28;20212;-86
2023/07/10 04:53:32;;;;;;;4.73;2.30;;;;;;;24.61;59.54;99331.22;5081013;28;20564;-86
2023/07/10 04:56:01;;;;;;;5.40;2.67;;;;;;;24.72;58.64;99320.19;5071460;28;20623;-86
2023/07/10 04:58:31;;;;;;;4.13;2.13;;;;;;;24.79;58.23;99323.09;5072563;28;20228;-86
2023/07/10 05:00:59;;;;;;;4.37;2.33;;;;;;;24.91;57.28;99321.75;5071862;28;20173;-86
2023/07/10 05:03:26;;;;;;;3.30;1.80;;;;;;;25.00;56.83;99329.63;5071734;28;20183;-86
2023/07/10 05:05:58;;;;;;;8.90;2.23;;;;;;;25.18;57.38;99326.78;5074352;28;20184;-86
2023/07/10 05:08:26;;;;;;;3.80;2.10;;;;;;;25.25;57.52;99325.09;5075535;28;20166;-86
2023/07/10 05:10:54;;;;;;;3.67;2.20;;;;;;;25.26;55.33;99317.91;5076434;28;20181;-86
2023/07/10 05:13:24;;;;;;;4.87;1.93;;;;;;;25.37;54.50;99325.56;5076353;28;20201;-86
2023/07/10 05:15:52;;;;;;;7.10;2.30;;;;;;;25.68;54.75;99328.44;5076667;28;20613;-86
2023/07/10 05:18:18;;;;;;;4.20;2.30;;;;;;;25.99;54.70;99330.19;5075878;28;20705;-86
2023/07/10 05:20:46;;;;;;;6.07;2.40;;;;;;;26.33;54.03;99326.34;5076273;28;20314;-86
2023/07/10 05:23:13;;;;;;;4.33;2.20;;;;;;;26.69;52.17;99325.63;5076694;28;20177;-86
2023/07/10 05:25:39;;;;;;;4.37;2.30;;;;;;;27.12;50.82;99315.25;5076172;28;20601;-87
2023/07/10 05:28:05;;;;;;;4.50;2.30;;;;;;;27.45;49.94;99330.09;5076392;28;20176;-86
2023/07/10 05:30:35;;;;;;;4.83;2.70;;;;;;;27.88;48.42;99323.09;5076038;28;20593;-87
2023/07/10 05:33:03;;;;;;;3.73;2.23;;;;;;;28.27;47.86;99333.56;5075226;28;20181;-87
2023/07/10 05:35:29;;;;;;;4.93;2.40;;;;;;;28.44;46.63;99335.00;5074729;28;20271;-86
2023/07/10 05:37:56;;;;;;;4.88;2.15;;;;;;;28.32;45.29;99334.69;5075898;28;20215;-87
2023/07/10 05:40:22;;;;;;;5.45;2.00;;;;;;;28.11;45.80;99331.94;5075518;28;20200;-86
2023/07/10 05:42:49;;;;;;;3.47;2.17;;;;;;;28.18;47.11;99332.00;5074862;28;20173;-86
2023/07/10 05:45:16;;;;;;;4.03;2.05;;;;;;;28.02;46.92;99333.03;5073462;28;20180;-86
2023/07/10 05:47:41;;;;;;;4.15;2.00;;;;;;;28.12;46.56;99336.28;5073984;28;20200;-86
2023/07/10 05:50:07;;;;;;;4.65;2.30;;;;;;;28.01;46.03;99334.03;5073960;28;20294;-87
2023/07/10 05:52:32;;;;;;;5.68;1.92;;;;;;;27.98;46.09;99335.25;5072711;28;20196;-87
2023/07/10 05:54:58;;;;;;;4.40;2.10;;;;;;;27.94;47.69;99328.56;5072823;28;20280;-86
2023/07/10 05:57:23;;;;;;;4.25;2.03;;;;;;;28.10;47.83;99332.94;5072669;28;20183;-86
2023/07/10 05:59:49;;;;;;;5.25;2.47;;;;;;;28.21;47.34;99335.16;5072429;28;20197;-87
2023/07/10 06:02:14;;;;;;;3.85;1.90;;;;;;;28.25;46.33;99333.75;5072441;28;20211;-87
2023/07/10 06:04:39;;;;;;;7.50;2.05;;;;;;;28.25;45.88;99336.44;5073721;28;20188;-87
2023/07/10 06:07:05;;;;;;;5.45;1.75;;;;;;;28.42;46.14;99337.06;5075993;28;20185;-87
2023/07/10 06:09:31;;;;;;;3.55;1.88;;;;;;;28.43;46.11;99341.44;5074400;28;20589;-87
2023/07/10 06:11:57;;;;;;;5.70;1.83;;;;;;;28.59;46.47;99339.34;5074253;28;20177;-87
2023/07/10 06:14:23;;;;;;;4.20;2.17;;;;;;;28.70;45.29;99334.50;5075818;28;20196;-86
2023/07/10 06:16:48;;;;;;;5.20;2.30;;;;;;;28.72;44.75;99337.88;5075661;28;20293;-87
2023/07/10 06:19:14;;;;;;;3.88;2.38;;;;;;;28.86;45.01;99345.06;5075033;28;20286;-87
2023/07/10 06:21:39;;;;;;;4.25;2.08;;;;;;;28.94;44.36;99336.84;5073893;28;20702;-89
2023/07/10 06:24:06;;;;;;;2.97;1.77;;;;;;;29.11;44.48;99333.66;5074065;28;20181;-87
2023/07/10 06:26:31;;;;;;;4.15;1.80;;;;;;;29.20;43.71;99339.78;5074101;28;20212;-87
2023/07/10 06:28:56;;;;;;;3.42;1.70;;;;;;;29.41;43.83;99336.25;5074274;28;20204;-88
2023/07/10 06:31:22;;;;;;;3.00;1.85;;;;;;;29.41;43.31;99334.38;5074410;28;20619;-88
2023/07/10 06:33:47;;;;;;;4.30;2.17;;;;;;;29.56;43.38;99337.81;5075170;28;20177;-88
2023/07/10 06:36:13;;;;;;;5.85;2.17;;;;;;;29.71;43.20;99340.44;5073879;28;20184;-87
2023/07/10 06:38:38;;;;;;;5.50;2.13;;;;;;;29.98;43.65;99336.88;5074033;28;20201;-88
2023/07/10 06:41:05;;;;;;;8.07;1.75;;;;;;;29.93;40.64;99341.22;5073946;28;20204;-88
2023/07/10 06:43:31;;;;;;;4.63;2.35;;;;;;;30.19;41.09;99334.06;5074674;28;20627;-88
2023/07/10 06:45:56;;;;;;;4.50;1.83;;;;;;;30.48;41.11;99330.25;5074647;28;20211;-88
2023/07/10 06:48:22;;;;;;;4.07;2.17;;;;;;;30.87;41.67;99333.06;5073626;28;20216;-89
2023/07/10 06:50:53;;;;;;;5.68;2.05;;;;;;;31.07;40.33;99330.41;5073892;28;20205;-89
2023/07/10 06:53:19;;;;;;;3.35;1.67;;;;;;;30.99;39.77;99331.47;5074593;28;20185;-88
2023/07/10 06:56:01;;;;;;;3.75;1.88;;;;;;;31.26;39.91;99332.31;5074388;28;20187;-90
2023/07/10 06:58:27;;;;;;;3.33;1.67;;;;;;;31.33;38.10;99324.19;5074904;28;20212;-88
2023/07/10 07:00:53;;;;;;;3.28;1.95;;;;;;;31.40;37.18;99317.72;5073343;28;20188;-90
2023/07/10 07:03:18;;;;;;;3.42;1.77;;;;;;;31.53;37.08;99316.88;5074580;28;20256;-88
2023/07/10 07:05:44;;;;;;;4.97;1.60;;;;;;;31.75;39.06;99314.78;5074188;28;20177;-88
2023/07/10 07:08:10;;;;;;;2.75;1.67;;;;;;;31.91;37.30;99312.44;5073558;28;20181;-90
2023/07/10 07:10:40;;;;;;;3.22;1.65;;;;;;;32.02;38.84;99306.38;5073948;28;20169;-89
2023/07/10 07:13:05;;;;;;;4.13;1.85;;;;;;;32.19;37.68;99307.56;5074085;28;20199;-89
2023/07/10 07:15:31;;;;;;;3.80;1.70;;;;;;;32.40;37.59;99301.00;5062865;28;20208;-88
2023/07/10 07:17:56;;;;;;;3.20;1.75;;;;;;;32.53;36.93;99297.41;5054485;28;20256;-90
2023/07/10 07:20:22;;;;;;;4.95;2.08;;;;;;;32.59;36.38;99297.41;5053841;28;20292;-89
2023/07/10 07:22:47;;;;;;;4.10;1.85;;;;;;;32.86;36.96;99297.22;5053071;28;20221;-90
2023/07/10 07:25:13;;;;;;;4.30;1.67;;;;;;;32.83;35.43;99300.38;5053977;28;20509;-89
2023/07/10 07:27:38;;;;;;;5.70;1.80;;;;;;;32.88;34.92;99293.22;5067033;28;20172;-91
2023/07/10 07:30:05;;;;;;;5.28;1.60;;;;;;;32.99;34.81;99295.25;5072852;28;20176;-90
2023/07/10 07:32:31;;;;;;;2.97;1.70;;;;;;;33.23;35.70;99304.50;5073735;28;20630;-92
2023/07/10 07:34:56;;;;;;;2.78;1.67;;;;;;;33.38;35.00;99296.81;5074007;28;20188;-90
2023/07/10 07:37:22;;;;;;;4.85;1.70;;;;;;;33.57;34.36;99297.72;5073742;28;20194;-90
2023/07/10 07:39:48;;;;;;;3.95;1.80;;;;;;;33.50;32.09;99296.91;5074118;28;20284;-91
2023/07/10 07:42:13;;;;;;;2.85;1.30;;;;;;;33.46;34.00;99298.44;5072709;28;20630;-90
2023/07/10 07:44:39;;;;;;;2.65;1.40;;;;;;;33.38;32.82;99308.53;5073719;28;20183;-90
2023/07/10 07:47:04;;;;;;;2.72;1.30;;;;;;;33.38;32.41;99296.81;5073510;28;20184;-92
2023/07/10 07:49:30;;;;;;;3.33;1.50;;;;;;;33.37;32.66;99298.72;5073851;28;20165;-91
2023/07/10 07:51:55;;;;;;;5.28;1.95;;;;;;;33.65;33.51;99302.88;5074400;28;20261;-90
2023/07/10 07:54:21;;;;;;;3.22;1.65;;;;;;;33.85;33.63;99301.59;5073763;28;20175;-91
2023/07/10 07:56:46;;;;;;;4.05;1.63;;;;;;;34.06;32.36;99296.75;5072486;28;20173;-92
2023/07/10 07:59:12;;;;;;;3.13;1.63;;;;;;;34.11;31.47;99303.22;5073267;28;20189;-90
2023/07/10 08:01:37;;;;;;;2.92;1.50;;;;;;;34.30;33.88;99291.25;5072450;28;20698;-91
2023/07/10 08:04:04;;;;;;;3.50;1.30;;;;;;;34.33;32.59;99290.78;5073402;28;20191;-90
2023/07/10 08:06:32;;;;;;;5.20;2.45;;;;;;;34.31;31.01;99286.63;5072357;28;20193;-90
2023/07/10 08:08:58;;;;;;;3.03;1.30;;;;;;;34.32;32.33;99283.69;5073217;28;20185;-90
2023/07/10 08:11:24;;;;;;;3.53;1.40;;;;;;;34.34;30.43;99289.72;5072472;28;20250;-92
2023/07/10 08:13:50;;;;;;;2.38;1.13;;;;;;;34.23;30.87;99282.31;5073289;28;20188;-90
2023/07/10 08:16:16;;;;;;;4.80;1.67;;;;;;;34.39;32.79;99280.84;5073546;28;20289;-90
2023/07/10 08:18:41;;;;;;;2.92;1.50;;;;;;;34.68;32.42;99276.50;5073011;28;20636;-90
2023/07/10 08:21:09;;;;;;;3.58;1.90;;;;;;;34.71;31.75;99276.88;5072240;28;20223;-90
2023/07/10 08:23:35;;;;;;;5.15;1.95;;;;;;;34.46;31.49;99274.25;5072217;28;20181;-92
2023/07/10 08:26:01;;;;;;;2.47;1.42;;;;;;;34.42;30.54;99283.13;5072287;28;20199;-90
2023/07/10 08:28:27;;;;;;;2.88;1.38;;;;;;;34.35;30.99;99275.06;5073221;28;20525;-92
2023/07/10 08:30:52;;;;;;;5.00;1.60;;;;;;;34.49;31.60;99273.81;5073067;28;20538;-91
2023/07/10 08:33:18;;;;;;;4.55;1.27;;;;;;;34.61;31.08;99271.16;5073201;28;20169;-91
2023/07/10 08:35:51;;;;;;;3.45;1.67;;;;;;;34.33;30.32;99263.56;5072206;28;20237;-90
2023/07/10 08:38:17;;;;;;;3.00;1.48;;;;;;;34.31;32.21;99264.84;5072161;28;20211;-90
2023/07/10 08:40:43;;;;;;;3.80;1.65;;;;;;;34.45;32.35;99267.16;5075054;28;20260;-92
2023/07/10 08:43:37;;;;;;;4.13;1.80;;;;;;;34.68;30.00;99249.25;5077070;28;20201;-90
2023/07/10 08:46:07;;;;;;;4.10;1.60;;;;;;;34.88;30.32;99263.44;5074917;28;20185;-91
2023/07/10 08:48:38;;;;;;;3.10;1.52;;;;;;;34.87;30.92;99254.41;5077126;28;20177;-89
2023/07/10 08:51:32;;;;;;;2.95;1.58;;;;;;;35.21;32.13;99250.09;5077543;28;20164;-89
2023/07/10 08:54:05;;;;;;;3.10;1.80;;;;;;;35.25;30.26;99250.47;5076786;28;20153;-91
2023/07/10 08:56:45;;;;;;;3.22;1.85;;;;;;;35.32;32.06;99245.72;5076822;28;20158;-88
2023/07/10 08:59:13;;;;;;;3.22;1.42;;;;;;;35.70;30.43;99252.34;5076621;28;20185;-90
2023/07/10 09:01:43;;;;;;;3.15;1.58;;;;;;;35.79;29.95;99244.63;5075753;28;20185;-89
2023/07/10 09:04:14;;;;;;;3.15;1.23;;;;;;;35.78;30.36;99240.22;5076583;28;20179;-92
2023/07/10 09:06:45;;;;;;;2.38;1.20;;;;;;;35.63;28.12;99251.66;5075823;28;20169;-91
2023/07/10 09:09:37;;;;;;;1.70;0.95;;;;;;;35.73;29.34;99243.69;5075509;28;20630;-91
2023/07/10 09:12:08;;;;;;;2.47;1.27;;;;;;;36.04;27.83;99247.06;5075679;28;20166;-90
2023/07/10 09:14:57;;;;;;;3.00;1.65;;;;;;;36.18;27.21;99251.19;5076949;28;20161;-89
2023/07/10 09:17:33;;;;;;;3.97;1.20;;;;;;;36.14;27.83;99250.84;5076438;28;20260;-90
2023/07/10 09:20:00;;;;;;;2.22;1.00;;;;;;;36.18;27.57;99245.72;5075228;28;20266;-93
2023/07/10 09:22:26;;;;;;;2.88;1.30;;;;;;;36.11;24.97;99243.13;5075372;28;20177;-89
2023/07/10 09:24:53;;;;;;;2.47;1.10;;;;;;;36.13;27.65;99238.28;5076162;28;20169;-91
2023/07/10 09:27:18;;;;;;;2.15;0.98;;;;;;;36.13;27.17;99242.91;5075300;28;20276;-91
2023/07/10 09:29:50;;;;;;;5.07;1.02;;;;;;;36.38;28.74;99243.38;5075407;28;20169;-91
2023/07/10 09:32:18;;;;;;;2.67;1.30;;;;;;;36.28;27.44;99237.72;5076253;28;20161;-92
2023/07/10 09:34:50;;;;;;;2.15;1.00;;;;;;;36.43;28.54;99231.75;5074985;28;20645;-91
2023/07/10 09:37:19;;;;;;;3.83;1.65;;;;;;;36.66;28.19;99235.19;5075994;28;20183;-90
2023/07/10 09:39:45;;;;;;;3.08;1.63;;;;;;;36.75;26.19;99225.53;5075064;28;20580;-91
2023/07/10 09:42:16;;;;;;;2.00;1.25;;;;;;;36.65;27.88;99222.63;5075365;28;20188;-89
2023/07/10 09:44:52;;;;;;;2.45;1.20;;;;;;;36.68;27.21;99224.88;5075972;28;20240;-90
2023/07/10 09:47:19;;;;;;;1.88;1.20;;;;;;;36.88;29.06;99222.47;5075881;28;20168;-90
2023/07/10 09:49:56;;;;;;;4.03;1.38;;;;;;;36.82;25.52;99220.72;5075775;28;20173;-90
2023/07/10 09:52:29;;;;;;;1.73;1.02;;;;;;;37.18;27.29;99224.06;5075627;28;20222;-91
2023/07/10 09:55:03;;;;;;;2.40;1.20;;;;;;;37.11;25.62;99217.94;5074752;28;20181;-90
2023/07/10 09:57:28;;;;;;;4.85;1.30;;;;;;;36.98;26.24;99221.81;5076227;28;20173;-90
2023/07/10 09:59:56;;;;;;;1.85;1.08;;;;;;;37.10;26.19;99216.28;5075592;28;20672;-90
2023/07/10 10:02:32;;;;;;;4.75;1.15;;;;;;;36.93;24.79;99218.97;5075575;28;20181;-90
2023/07/10 10:05:13;;;;;;;3.70;1.42;;;;;;;37.08;27.12;99212.97;5075704;28;20200;-92
2023/07/10 10:07:42;;;;;;;2.78;1.15;;;;;;;37.01;27.37;99212.28;5075981;28;20243;-89
2023/07/10 10:10:20;;;;;;;3.13;1.50;;;;;;;37.16;26.39;99209.81;5075071;28;20181;-90
2023/07/10 10:12:51;;;;;;;2.38;1.30;;;;;;;37.03;27.74;99204.69;5075655;28;20644;-90
2023/07/10 10:15:47;;;;;;;2.65;1.38;;;;;;;36.90;26.31;99203.91;5075184;28;20283;-89
2023/07/10 10:18:37;;;;;;;3.30;1.27;;;;;;;37.10;25.34;99199.88;5075088;28;20173;-90
2023/07/10 10:21:04;;;;;;;3.47;1.67;;;;;;;37.27;25.40;99192.47;5074748;28;20220;-90
2023/07/10 10:23:33;;;;;;;4.88;1.33;;;;;;;37.07;26.04;99189.44;5074303;28;20247;-88
2023/07/10 10:26:40;;;;;;;2.20;1.10;;;;;;;37.20;27.29;99195.38;5075161;28;20192;-89
2023/07/10 10:29:21;;;;;;;1.90;1.00;;;;;;;37.40;26.15;99200.31;5068267;28;20223;-89
2023/07/10 10:32:23;;;;;;;2.92;1.10;;;;;;;37.08;26.26;99191.09;5075242;28;20204;-89
2023/07/10 10:35:20;;;;;;;2.08;1.10;;;;;;;37.62;25.13;99193.00;5074701;28;20181;-91
2023/07/10 10:38:08;;;;;;;3.60;1.25;;;;;;;37.76;26.35;99185.25;5075137;28;20244;-89
2023/07/10 10:40:52;;;;;;;1.90;1.08;;;;;;;37.76;26.37;99180.59;5075347;28;20571;-89
2023/07/10 10:43:27;;;;;;;2.72;1.20;;;;;;;37.95;25.06;99181.94;5074874;28;20618;-89
2023/07/10 10:45:58;;;;;;;3.15;1.10;;;;;;;38.38;23.75;99174.75;5074577;28;20177;-88
2023/07/10 10:48:43;;;;;;;3.38;1.50;;;;;;;37.84;24.94;99182.84;5074681;28;20180;-89
2023/07/10 10:51:25;;;;;;;3.20;1.27;;;;;;;37.44;24.76;99176.91;5074854;28;20169;-90
2023/07/10 10:54:19;;;;;;;1.95;0.88;;;;;;;37.33;28.38;99175.91;5074824;28;20168;-89
2023/07/10 10:57:01;;;;;;;3.60;1.23;;;;;;;37.70;24.32;99170.66;5073523;28;20177;-89
2023/07/10 10:59:29;;;;;;;2.03;0.90;;;;;;;37.35;25.78;99165.53;5073987;28;20281;-88
2023/07/10 11:02:19;;;;;;;2.08;1.15;;;;;;;37.42;24.33;99162.66;5074359;28;20181;-89
2023/07/10 11:04:56;;;;;;;3.65;1.20;;;;;;;37.47;26.51;99160.81;5074114;28;20165;-88
2023/07/10 11:07:23;;;;;;;2.38;1.20;;;;;;;37.81;24.85;99164.25;5074515;28;20244;-88
2023/07/10 11:09:59;;;;;;;4.13;1.40;;;;;;;37.86;25.38;99161.59;5074240;28;20741;-88
2023/07/10 11:12:30;;;;;;;3.40;0.90;;;;;;;37.93;25.39;99151.25;5074406;28;20176;-89
2023/07/10 11:15:00;;;;;;;3.30;1.40;;;;;;;37.92;25.16;99140.59;5074450;28;20204;-89
2023/07/10 11:17:26;;;;;;;1.98;1.00;;;;;;;37.56;25.25;99144.75;5073128;28;20173;-89
2023/07/10 11:19:53;;;;;;;2.92;1.42;;;;;;;37.81;26.23;99141.50;5073845;28;20215;-90
2023/07/10 11:22:31;;;;;;;3.17;1.15;;;;;;;38.10;24.49;99135.53;5074054;28;20181;-89
2023/07/10 11:24:58;;;;;;;1.95;1.10;;;;;;;38.25;23.18;99131.31;5074301;28;20257;-90
2023/07/10 11:27:30;;;;;;;2.20;1.17;;;;;;;38.04;24.14;99131.13;5073903;28;20321;-88
2023/07/10 11:30:07;;;;;;;3.15;0.93;;;;;;;38.28;24.00;99125.31;5073851;28;20629;-89
2023/07/10 11:32:53;;;;;;;3.80;1.52;;;;;;;38.34;24.01;99125.13;5073855;28;20168;-89
2023/07/10 11:35:20;;;;;;;1.92;0.98;;;;;;;38.31;23.59;99113.88;5074130;28;20183;-88
2023/07/10 11:37:48;;;;;;;2.53;1.23;;;;;;;37.72;24.36;99121.16;5073419;28;20193;-89
2023/07/10 11:40:44;;;;;;;1.73;0.88;;;;;;;38.15;24.08;99115.63;5072730;28;20228;-89
2023/07/10 11:43:27;;;;;;;3.17;1.05;;;;;;;37.94;23.55;99117.34;5072357;28;20559;-88
2023/07/10 11:46:03;;;;;;;1.60;0.70;;;;;;;38.11;24.01;99115.31;5073452;28;20184;-88